Hiram, Ohio
Current Conditions -  °F | °C
As of 5:15 AM on Tuesday 27 Jan 2015 (Local Time) from KPOV Reporting Station
Light Snow Light Snow  
Wind Chill: 18°   Ceiling: 2500
Heat Index: 18°   Visibility: 10mi
Dew Point: 13°   Wind: 3mph
Humidity: 81%   Direction: 330°NNW
Pressure: 29.89"   Gusts: NA
Location:  41.31°N, 81.14°W
Report Text: KPOV 271015Z AUTO 33003KT 10SM -SN SCT012 OVC025 M08/M11 A2989 RMK AO2 T10801107
Loading
Personal Weather Stations






























Interactive Weather Map New forecast layout! Learn more

10-Day Weather Forecast

Advertisements
Track Severe Weather on mobile